Time;durP1;ratioP1;P1;durP2;ratioP2;P2;SDS_P1;SDS_P2;PMS_P1;PMS_P2;Temp;Humidity;BMP_temperature;BMP_pressure;BME280_temperature;BME280_humidity;BME280_pressure;Samples;Min_cycle;Max_cycle;Signal;HPM_P1;HPM_P2
2021/03/16 00:02:17;;;;;;;7.57;0.50;;;6.40;99.90;;;;;;5076028;28;20034;-79
2021/03/16 00:04:42;;;;;;;11.85;0.32;;;6.40;99.90;;;;;;5075336;28;20024;-79
2021/03/16 00:07:08;;;;;;;14.65;1.27;;;6.50;99.90;;;;;;5074436;28;20036;-78
2021/03/16 00:09:34;;;;;;;7.95;0.30;;;6.40;99.90;;;;;;5075542;28;20025;-80
2021/03/16 00:11:59;;;;;;;10.50;0.63;;;6.40;99.90;;;;;;5077747;28;20076;-79
2021/03/16 00:14:25;;;;;;;14.05;1.77;;;6.30;99.90;;;;;;5078587;28;20025;-79
2021/03/16 00:16:51;;;;;;;11.13;0.95;;;6.20;99.90;;;;;;5061073;28;20031;-79
2021/03/16 00:19:20;;;;;;;12.07;1.58;;;6.10;99.90;;;;;;5060266;28;20028;-78
2021/03/16 00:21:46;;;;;;;8.55;0.85;;;6.10;99.90;;;;;;5078637;28;20028;-80
2021/03/16 00:24:12;;;;;;;6.13;0.40;;;6.00;99.90;;;;;;5061273;28;20021;-79
2021/03/16 00:26:37;;;;;;;9.60;0.82;;;6.00;99.90;;;;;;5079313;28;20466;-79
2021/03/16 00:29:03;;;;;;;8.90;1.23;;;5.90;99.90;;;;;;5079024;28;20461;-79
2021/03/16 00:31:29;;;;;;;19.48;0.47;;;5.90;99.90;;;;;;5075769;28;20032;-76
2021/03/16 00:33:55;;;;;;;15.48;0.68;;;5.90;99.90;;;;;;5073500;28;20115;-77
2021/03/16 00:36:20;;;;;;;10.32;0.47;;;5.90;99.90;;;;;;5073575;28;20078;-78
2021/03/16 00:38:46;;;;;;;15.38;0.82;;;6.00;99.90;;;;;;5073498;28;20074;-79
2021/03/16 00:41:12;;;;;;;10.13;1.23;;;6.00;99.90;;;;;;5056213;28;20064;-77
2021/03/16 00:43:37;;;;;;;9.70;1.15;;;6.10;99.90;;;;;;5073629;28;20025;-77
2021/03/16 00:46:03;;;;;;;6.30;0.08;;;6.10;99.90;;;;;;5057352;28;20032;-81
2021/03/16 00:48:28;;;;;;;13.77;0.95;;;6.10;99.90;;;;;;5073993;28;20024;-76
2021/03/16 00:50:55;;;;;;;15.25;0.80;;;6.10;99.90;;;;;;5074936;28;20106;-75
2021/03/16 00:53:20;;;;;;;12.55;0.85;;;6.20;99.90;;;;;;5073668;28;20027;-75
2021/03/16 00:55:46;;;;;;;9.13;1.02;;;6.10;99.90;;;;;;5074797;28;20020;-75
2021/03/16 00:58:11;;;;;;;7.65;0.10;;;6.10;99.90;;;;;;5074062;28;20554;-77
2021/03/16 01:00:37;;;;;;;6.13;0.40;;;6.10;99.90;;;;;;5056248;28;20035;-77
2021/03/16 01:03:03;;;;;;;7.95;0.30;;;6.20;99.90;;;;;;5073257;28;20123;-77
2021/03/16 01:05:29;;;;;;;6.57;0.17;;;6.20;99.90;;;;;;5056996;28;20025;-78
2021/03/16 01:07:55;;;;;;;11.90;0.85;;;6.20;99.90;;;;;;5059240;28;20563;-76
2021/03/16 01:10:22;;;;;;;7.65;0.10;;;6.20;99.90;;;;;;5073241;28;20037;-76
2021/03/16 01:12:48;;;;;;;11.63;1.08;;;6.20;99.90;;;;;;5056337;28;20027;-77
2021/03/16 01:15:14;;;;;;;11.30;0.63;;;6.20;99.90;;;;;;5076148;28;20020;-76
2021/03/16 01:17:40;;;;;;;8.23;0.25;;;6.20;99.90;;;;;;5074107;28;20025;-77
2021/03/16 01:20:14;;;;;;;5.82;0.63;;;6.30;99.90;;;;;;5057048;28;20500;-76
2021/03/16 01:22:40;;;;;;;6.82;0.85;;;6.20;99.90;;;;;;5073258;28;20033;-77
2021/03/16 01:25:06;;;;;;;7.15;0.43;;;6.20;99.90;;;;;;5073798;28;20067;-76
2021/03/16 01:27:32;;;;;;;2.88;0.45;;;6.30;99.90;;;;;;5073272;28;20416;-79
2021/03/16 01:29:58;;;;;;;13.05;0.82;;;6.30;99.90;;;;;;5055916;28;20028;-77
2021/03/16 01:32:23;;;;;;;8.20;0.10;;;6.20;99.90;;;;;;5055755;28;20029;-78
2021/03/16 01:34:49;;;;;;;8.88;0.50;;;6.20;99.90;;;;;;5073215;28;20035;-80
2021/03/16 01:37:14;;;;;;;9.68;0.45;;;6.20;99.90;;;;;;5056598;28;20055;-76
2021/03/16 01:39:40;;;;;;;12.30;0.85;;;6.20;99.90;;;;;;5056598;28;20401;-79
2021/03/16 01:42:05;;;;;;;8.25;0.38;;;6.20;99.90;;;;;;5075719;28;20029;-78
2021/03/16 01:44:31;;;;;;;12.52;0.65;;;6.20;99.90;;;;;;5075593;28;20032;-78
2021/03/16 01:46:58;;;;;;;5.45;0.45;;;6.20;99.90;;;;;;5075979;28;20044;-79
2021/03/16 01:49:24;;;;;;;14.15;1.17;;;6.20;99.90;;;;;;5062798;28;20048;-79
2021/03/16 01:51:50;;;;;;;7.93;0.80;;;6.20;99.90;;;;;;5080433;28;20040;-79
2021/03/16 01:54:15;;;;;;;10.80;0.73;;;6.20;99.90;;;;;;5080703;28;20024;-79
2021/03/16 01:56:43;;;;;;;14.30;0.95;;;6.20;99.90;;;;;;5061870;28;20370;-77
2021/03/16 01:59:16;;;;;;;8.23;0.20;;;6.20;99.90;;;;;;5079088;28;20027;-77
2021/03/16 02:01:43;;;;;;;19.98;1.85;;;6.30;99.90;;;;;;5079365;28;20389;-80
2021/03/16 02:04:09;;;;;;;13.65;1.25;;;6.20;99.90;;;;;;5061455;28;20020;-79
2021/03/16 02:06:44;;;;;;;8.43;0.40;;;6.20;99.90;;;;;;5079810;28;20035;-79
2021/03/16 02:09:21;;;;;;;10.13;0.60;;;6.20;99.90;;;;;;5059486;28;20041;-81
2021/03/16 02:11:53;;;;;;;8.73;0.90;;;6.20;99.90;;;;;;5060478;28;20032;-77
2021/03/16 02:14:31;;;;;;;12.60;0.90;;;6.20;99.90;;;;;;5078693;28;20033;-77
2021/03/16 02:17:28;;;;;;;10.45;0.40;;;6.20;99.90;;;;;;5060902;28;20149;-78
2021/03/16 02:20:21;;;;;;;10.57;1.27;;;6.20;99.90;;;;;;5060931;28;20032;-77
2021/03/16 02:22:48;;;;;;;8.57;0.40;;;6.20;99.90;;;;;;5078583;28;20037;-79
2021/03/16 02:25:40;;;;;;;8.52;0.85;;;6.20;99.90;;;;;;5060028;28;20021;-78
2021/03/16 02:28:41;;;;;;;10.68;0.63;;;6.20;99.90;;;;;;5077051;28;20027;-78
2021/03/16 02:31:09;;;;;;;13.88;1.20;;;6.20;99.90;;;;;;5060756;28;20110;-78
2021/03/16 02:33:37;;;;;;;9.05;0.57;;;6.20;99.90;;;;;;5076346;28;20025;-78
2021/03/16 02:36:04;;;;;;;8.88;0.88;;;6.20;99.90;;;;;;5059474;28;20094;-81
2021/03/16 02:38:32;;;;;;;7.88;1.60;;;6.20;99.90;;;;;;5076968;28;20055;-81
2021/03/16 02:41:00;;;;;;;9.77;1.80;;;6.10;99.90;;;;;;5060797;28;20047;-79
2021/03/16 02:43:27;;;;;;;7.10;0.50;;;6.20;99.90;;;;;;5078932;28;20063;-77
2021/03/16 02:45:53;;;;;;;11.82;0.93;;;6.20;99.90;;;;;;5076514;28;20066;-78
2021/03/16 02:48:20;;;;;;;5.90;0.20;;;6.20;99.90;;;;;;5077715;28;20036;-81
2021/03/16 02:50:47;;;;;;;9.63;1.27;;;6.20;99.90;;;;;;5060516;28;20051;-81
2021/03/16 02:53:15;;;;;;;8.15;1.08;;;6.20;99.90;;;;;;5078564;28;20032;-79
2021/03/16 02:55:42;;;;;;;17.75;1.55;;;6.20;99.90;;;;;;5079668;28;20077;-82
2021/03/16 02:58:08;;;;;;;19.23;1.05;;;6.20;99.90;;;;;;5059320;28;20021;-77
2021/03/16 03:00:35;;;;;;;12.85;0.40;;;6.20;99.90;;;;;;5075630;28;20056;-77
2021/03/16 03:03:01;;;;;;;9.02;1.60;;;6.20;99.90;;;;;;5060831;28;20023;-78
2021/03/16 03:05:27;;;;;;;11.75;0.75;;;6.20;99.90;;;;;;5076094;28;20496;-78
2021/03/16 03:07:55;;;;;;;19.70;0.98;;;6.20;99.90;;;;;;5077861;28;20024;-78
2021/03/16 03:10:23;;;;;;;12.05;1.20;;;6.20;99.90;;;;;;5059942;28;20024;-78
2021/03/16 03:12:51;;;;;;;11.83;0.10;;;6.10;99.90;;;;;;5060308;28;20568;-78
2021/03/16 03:15:17;;;;;;;15.93;1.73;;;6.10;99.90;;;;;;5076056;28;20044;-78
2021/03/16 03:17:42;;;;;;;12.23;1.90;;;6.10;99.90;;;;;;5077409;28;20278;-77
2021/03/16 03:20:10;;;;;;;16.42;0.25;;;6.10;99.90;;;;;;5079005;28;20040;-76
2021/03/16 03:23:01;;;;;;;10.15;1.35;;;6.00;99.90;;;;;;5059143;28;20021;-78
2021/03/16 03:25:33;;;;;;;12.30;1.58;;;6.00;99.90;;;;;;5075819;28;20020;-77
2021/03/16 03:28:04;;;;;;;11.02;0.15;;;5.90;99.90;;;;;;5056652;28;20107;-77
2021/03/16 03:30:31;;;;;;;15.05;0.82;;;5.90;99.90;;;;;;5076666;28;20024;-78
2021/03/16 03:33:01;;;;;;;17.00;1.20;;;6.00;99.90;;;;;;5074860;28;20481;-76
2021/03/16 03:35:29;;;;;;;8.95;0.28;;;5.90;99.90;;;;;;5075218;28;20024;-77
2021/03/16 03:37:56;;;;;;;3.53;0.10;;;5.90;99.90;;;;;;5075694;28;20070;-79
2021/03/16 03:40:23;;;;;;;7.72;1.00;;;5.90;99.90;;;;;;5056092;28;20074;-75
2021/03/16 03:42:49;;;;;;;13.93;0.43;;;5.90;99.90;;;;;;5055183;28;20037;-77
2021/03/16 03:45:15;;;;;;;6.85;0.30;;;5.90;99.90;;;;;;5056277;28;20477;-76
2021/03/16 03:47:44;;;;;;;14.63;0.45;;;5.90;99.90;;;;;;5067134;28;20035;-77
2021/03/16 03:50:12;;;;;;;15.15;0.88;;;5.90;99.90;;;;;;5076280;28;20024;-80
2021/03/16 03:52:39;;;;;;;9.88;0.30;;;5.90;99.90;;;;;;5058607;28;20056;-75
2021/03/16 03:55:06;;;;;;;10.70;0.17;;;5.80;99.90;;;;;;5056658;28;20111;-77
2021/03/16 03:57:33;;;;;;;9.65;1.58;;;5.90;99.90;;;;;;5056648;28;20548;-78
2021/03/16 03:59:59;;;;;;;8.85;0.45;;;6.10;99.90;;;;;;5074104;28;20033;-76
2021/03/16 04:02:25;;;;;;;12.77;0.50;;;5.80;99.90;;;;;;5056337;28;20128;-78
2021/03/16 04:04:52;;;;;;;11.93;0.57;;;5.80;99.90;;;;;;5074879;28;20500;-82
2021/03/16 04:07:19;;;;;;;10.27;0.40;;;5.80;99.90;;;;;;5075938;28;20069;-77
2021/03/16 04:09:45;;;;;;;5.65;0.35;;;5.80;99.90;;;;;;5073988;28;20381;-78
2021/03/16 04:12:11;;;;;;;13.55;0.50;;;5.80;99.90;;;;;;5056261;28;20078;-75
2021/03/16 04:14:37;;;;;;;9.43;0.75;;;5.80;99.90;;;;;;5074218;28;20028;-77
2021/03/16 04:17:03;;;;;;;7.53;0.35;;;5.80;99.90;;;;;;5074143;28;20017;-77
2021/03/16 04:19:28;;;;;;;11.07;1.20;;;5.80;99.90;;;;;;5074146;28;20028;-79
2021/03/16 04:21:55;;;;;;;12.60;1.10;;;5.80;99.90;;;;;;5057163;28;20388;-76
2021/03/16 04:24:22;;;;;;;9.02;0.57;;;5.80;99.90;;;;;;5074484;28;20032;-77
2021/03/16 04:26:47;;;;;;;8.05;0.30;;;5.80;99.90;;;;;;5055882;28;20016;-77
2021/03/16 04:29:13;;;;;;;8.95;0.47;;;5.90;99.90;;;;;;5074002;28;20035;-75
2021/03/16 04:31:38;;;;;;;22.63;1.95;;;5.90;99.90;;;;;;5073756;28;20048;-78
2021/03/16 04:34:04;;;;;;;7.28;0.50;;;5.90;99.90;;;;;;5057534;28;20028;-80
2021/03/16 04:36:30;;;;;;;12.65;0.35;;;5.90;99.90;;;;;;5075875;28;20103;-76
2021/03/16 04:38:56;;;;;;;14.68;1.48;;;5.90;99.90;;;;;;5074968;28;20027;-78
2021/03/16 04:41:21;;;;;;;20.15;1.60;;;5.80;99.90;;;;;;5076851;28;20028;-78
2021/03/16 04:43:47;;;;;;;21.15;1.00;;;5.90;99.90;;;;;;5058405;28;20067;-76
2021/03/16 04:46:13;;;;;;;11.77;1.33;;;5.90;99.90;;;;;;5074709;28;20024;-77
2021/03/16 04:48:39;;;;;;;12.82;0.40;;;5.80;99.90;;;;;;5073703;28;20151;-78
2021/03/16 04:51:06;;;;;;;15.40;0.47;;;5.80;99.90;;;;;;5074971;28;20020;-81
2021/03/16 04:53:31;;;;;;;12.93;0.70;;;5.80;99.90;;;;;;5076380;28;20029;-79
2021/03/16 04:55:57;;;;;;;19.20;1.02;;;5.80;99.90;;;;;;5078905;28;20035;-80
2021/03/16 04:58:22;;;;;;;15.35;1.95;;;5.90;99.90;;;;;;5077738;28;20112;-79
2021/03/16 05:00:48;;;;;;;22.38;1.17;;;5.90;99.90;;;;;;5077701;28;20021;-76
2021/03/16 05:03:13;;;;;;;11.40;1.33;;;5.90;99.90;;;;;;5058626;28;20017;-78
2021/03/16 05:05:39;;;;;;;8.77;0.35;;;5.80;99.90;;;;;;5055986;28;20051;-78
2021/03/16 05:08:05;;;;;;;14.60;0.73;;;5.80;99.90;;;;;;5055128;28;20436;-79
2021/03/16 05:10:30;;;;;;;13.15;0.73;;;5.80;99.90;;;;;;5056288;28;20028;-79
2021/03/16 05:12:56;;;;;;;10.95;1.17;;;5.80;99.90;;;;;;5036556;28;20390;-76
2021/03/16 05:15:22;;;;;;;11.45;1.20;;;5.80;99.90;;;;;;5070924;28;20119;-77
2021/03/16 05:17:48;;;;;;;17.77;1.85;;;5.80;99.90;;;;;;5054972;28;20119;-77
2021/03/16 05:20:13;;;;;;;16.67;0.65;;;5.80;99.90;;;;;;5055029;28;20031;-76
2021/03/16 05:22:39;;;;;;;8.15;0.98;;;5.80;99.90;;;;;;5075202;28;20058;-76
2021/03/16 05:25:07;;;;;;;9.18;0.63;;;5.80;99.90;;;;;;5077259;28;20027;-76
2021/03/16 05:27:32;;;;;;;11.93;0.52;;;5.80;99.90;;;;;;5076949;28;20023;-76
2021/03/16 05:29:58;;;;;;;11.68;0.47;;;5.80;99.90;;;;;;5059168;28;20024;-76
2021/03/16 05:32:24;;;;;;;9.45;0.52;;;5.80;99.90;;;;;;5058728;28;20043;-76
2021/03/16 05:34:49;;;;;;;6.65;0.03;;;5.80;99.90;;;;;;5077203;28;20473;-76
2021/03/16 05:37:15;;;;;;;11.07;1.15;;;5.80;99.90;;;;;;5076750;28;20036;-76
2021/03/16 05:39:40;;;;;;;9.25;0.25;;;5.70;99.90;;;;;;5076678;28;20033;-78
2021/03/16 05:42:06;;;;;;;9.98;0.10;;;5.70;99.90;;;;;;5058719;28;20017;-77
2021/03/16 05:44:32;;;;;;;10.80;0.82;;;5.70;99.90;;;;;;5077042;28;20042;-77
2021/03/16 05:47:00;;;;;;;14.75;1.13;;;5.70;99.90;;;;;;5076450;28;20383;-77
2021/03/16 05:49:26;;;;;;;10.57;0.73;;;5.80;99.90;;;;;;5058713;28;20031;-77
2021/03/16 05:51:53;;;;;;;12.05;1.48;;;7.10;99.90;;;;;;5076413;28;20028;-77
2021/03/16 05:54:18;;;;;;;14.50;0.70;;;5.80;99.90;;;;;;5077013;28;20500;-77
2021/03/16 05:56:44;;;;;;;15.82;1.10;;;5.80;99.90;;;;;;5077085;28;20028;-77
2021/03/16 05:59:10;;;;;;;12.35;0.55;;;5.80;99.90;;;;;;5077184;28;20036;-77
2021/03/16 06:01:36;;;;;;;15.57;1.85;;;5.80;99.90;;;;;;5078073;28;20393;-78
2021/03/16 06:04:02;;;;;;;10.27;0.50;;;5.90;99.90;;;;;;5078044;28;20020;-77
2021/03/16 06:06:31;;;;;;;10.13;0.43;;;5.90;99.90;;;;;;5058269;28;20432;-76
2021/03/16 06:08:56;;;;;;;;;;;5.90;99.90;;;;;;5059216;28;20017;-75
2021/03/16 06:11:23;;;;;;;12.13;0.70;;;5.90;99.90;;;;;;5058657;28;19991;-75
2021/03/16 06:13:54;;;;;;;10.23;0.70;;;6.00;99.90;;;;;;5076621;28;20032;-76
2021/03/16 06:16:20;;;;;;;18.30;0.50;;;6.00;99.90;;;;;;5077902;28;20031;-77
2021/03/16 06:18:46;;;;;;;17.10;1.85;;;6.10;99.90;;;;;;5058019;28;20394;-77
2021/03/16 06:21:19;;;;;;;12.13;0.93;;;6.10;99.90;;;;;;5058413;28;20033;-77
2021/03/16 06:23:56;;;;;;;14.85;1.13;;;6.10;99.90;;;;;;5076684;28;20024;-76
2021/03/16 06:26:27;;;;;;;12.27;1.30;;;6.10;99.90;;;;;;5076012;28;20033;-76
2021/03/16 06:29:05;;;;;;;10.32;0.88;;;6.20;99.90;;;;;;5077294;28;20047;-79
2021/03/16 06:31:31;;;;;;;6.00;0.90;;;6.20;99.90;;;;;;5068425;28;20036;-76
2021/03/16 06:33:57;;;;;;;11.18;1.00;;;6.20;99.90;;;;;;5057302;28;20036;-76
2021/03/16 06:36:27;;;;;;;10.75;1.15;;;6.20;99.90;;;;;;5059270;28;20029;-78
2021/03/16 06:38:53;;;;;;;14.20;0.60;;;6.20;99.90;;;;;;5058085;28;20035;-76
2021/03/16 06:41:20;;;;;;;14.95;0.77;;;6.20;99.90;;;;;;5057819;28;20075;-77
2021/03/16 06:44:00;;;;;;;5.47;0.22;;;6.10;99.90;;;;;;5075941;28;20070;-79
2021/03/16 06:46:33;;;;;;;13.45;0.80;;;6.10;99.90;;;;;;5077543;28;20028;-78
2021/03/16 06:48:59;;;;;;;12.00;0.22;;;6.20;99.90;;;;;;5059234;28;20481;-77
2021/03/16 06:51:27;;;;;;;16.00;2.70;;;6.20;99.90;;;;;;5078823;28;20021;-79
2021/03/16 06:53:53;;;;;;;17.88;0.98;;;6.20;99.90;;;;;;5078348;28;20099;-77
2021/03/16 06:56:29;;;;;;;5.07;1.10;;;6.30;99.90;;;;;;5059682;28;20060;-77
2021/03/16 06:58:55;;;;;;;14.35;1.13;;;6.30;99.90;;;;;;5081169;28;20059;-76
2021/03/16 07:01:20;;;;;;;14.45;1.40;;;6.30;99.90;;;;;;5076393;28;20047;-77
2021/03/16 07:03:47;;;;;;;12.35;0.63;;;6.50;99.90;;;;;;5057788;28;20027;-75
2021/03/16 07:06:21;;;;;;;12.20;0.80;;;6.50;99.90;;;;;;5075809;28;20029;-76
2021/03/16 07:08:50;;;;;;;16.85;0.80;;;6.60;99.90;;;;;;5057729;28;20021;-77
2021/03/16 07:11:24;;;;;;;12.95;0.82;;;6.60;99.90;;;;;;5075142;28;20070;-78
2021/03/16 07:13:50;;;;;;;11.82;1.30;;;6.70;99.90;;;;;;5057629;28;20045;-78
2021/03/16 07:16:16;;;;;;;8.65;0.25;;;6.70;99.90;;;;;;5057787;28;20029;-78
2021/03/16 07:18:44;;;;;;;8.23;0.50;;;6.70;99.90;;;;;;5057629;28;20035;-78
2021/03/16 07:21:21;;;;;;;14.85;0.15;;;6.80;99.90;;;;;;5075695;28;20024;-78
2021/03/16 07:23:56;;;;;;;15.82;0.50;;;6.80;99.90;;;;;;5056961;28;20024;-78
2021/03/16 07:26:24;;;;;;;23.08;0.77;;;6.80;99.90;;;;;;5075395;28;20021;-78
2021/03/16 07:28:50;;;;;;;14.55;1.63;;;6.80;99.90;;;;;;5075272;28;20024;-78
2021/03/16 07:31:16;;;;;;;9.77;0.63;;;6.80;99.90;;;;;;5075591;28;20040;-78
2021/03/16 07:33:42;;;;;;;22.40;2.72;;;6.80;99.90;;;;;;5057268;28;20020;-78
2021/03/16 07:36:08;;;;;;;15.32;0.85;;;6.90;99.90;;;;;;5075203;28;20017;-78
2021/03/16 07:38:37;;;;;;;6.80;0.50;;;6.90;99.90;;;;;;5075810;28;20020;-78
2021/03/16 07:41:03;;;;;;;;;;;6.90;99.90;;;;;;5059231;28;20424;-76
2021/03/16 07:43:37;;;;;;;16.85;1.20;;;6.90;99.90;;;;;;5077419;28;19908;-80
2021/03/16 07:46:21;;;;;;;13.77;0.52;;;6.90;99.90;;;;;;5057496;28;20381;-76
2021/03/16 07:48:51;;;;;;;16.98;1.60;;;6.90;99.90;;;;;;5076152;28;20512;-77
2021/03/16 07:51:21;;;;;;;6.60;0.40;;;7.00;99.90;;;;;;5056873;28;20508;-77
2021/03/16 07:54:02;;;;;;;15.48;2.42;;;7.00;99.90;;;;;;5074566;28;20044;-78
2021/03/16 07:56:30;;;;;;;21.75;3.28;;;7.00;99.90;;;;;;5056989;28;20111;-77
2021/03/16 07:58:55;;;;;;;20.20;1.17;;;7.10;99.90;;;;;;5075154;28;20044;-78
2021/03/16 08:01:22;;;;;;;12.80;0.47;;;7.10;99.90;;;;;;5056674;28;20059;-78
2021/03/16 08:03:48;;;;;;;15.90;0.85;;;7.20;99.90;;;;;;5056721;28;20498;-78
2021/03/16 08:06:24;;;;;;;6.78;0.32;;;7.20;99.90;;;;;;5074298;28;20086;-78
2021/03/16 08:08:50;;;;;;;18.63;0.85;;;7.30;99.90;;;;;;5075102;28;20521;-78
2021/03/16 08:11:16;;;;;;;16.48;1.77;;;7.30;99.90;;;;;;5057909;28;20052;-78
2021/03/16 08:13:53;;;;;;;16.15;0.75;;;7.30;99.90;;;;;;5074392;28;20104;-78
2021/03/16 08:16:32;;;;;;;12.80;1.75;;;7.30;99.90;;;;;;5074997;28;20020;-78
2021/03/16 08:19:07;;;;;;;17.45;0.22;;;7.40;99.90;;;;;;5074406;28;20033;-78
2021/03/16 08:21:36;;;;;;;8.88;1.08;;;7.40;99.90;;;;;;5074438;28;20029;-78
2021/03/16 08:24:10;;;;;;;4.80;0.35;;;7.40;99.90;;;;;;5074633;28;20100;-78
2021/03/16 08:26:52;;;;;;;17.13;1.40;;;7.40;99.90;;;;;;5075013;28;20012;-78
2021/03/16 08:29:29;;;;;;;12.32;0.63;;;7.40;99.90;;;;;;5074866;28;20020;-76
2021/03/16 08:31:56;;;;;;;18.30;1.23;;;7.40;99.90;;;;;;5074500;28;20123;-76
2021/03/16 08:34:24;;;;;;;16.23;0.88;;;7.40;99.90;;;;;;5074744;28;20044;-79
2021/03/16 08:36:50;;;;;;;13.40;0.70;;;7.50;99.90;;;;;;5075346;28;20020;-75
2021/03/16 08:39:23;;;;;;;16.15;1.25;;;7.50;99.90;;;;;;5075267;28;20098;-77
2021/03/16 08:41:56;;;;;;;9.50;0.35;;;7.60;99.90;;;;;;5056727;28;20106;-76
2021/03/16 08:44:21;;;;;;;12.30;1.17;;;7.70;99.90;;;;;;5056307;28;20021;-77
2021/03/16 08:46:47;;;;;;;9.82;0.73;;;7.80;99.90;;;;;;5074590;28;20099;-78
2021/03/16 08:49:17;;;;;;;10.35;0.13;;;7.90;99.90;;;;;;5058444;28;20048;-79
2021/03/16 08:51:43;;;;;;;13.07;2.20;;;8.00;99.90;;;;;;5075282;28;20493;-77
2021/03/16 08:54:09;;;;;;;11.85;0.28;;;8.20;99.90;;;;;;5075267;28;20032;-76
2021/03/16 08:56:35;;;;;;;9.52;1.13;;;8.10;99.90;;;;;;5074075;28;20033;-77
2021/03/16 08:59:06;;;;;;;22.58;1.27;;;8.10;99.90;;;;;;5074899;28;20023;-76
2021/03/16 09:01:33;;;;;;;8.10;0.30;;;8.10;99.90;;;;;;5055467;28;20509;-78
2021/03/16 09:04:12;;;;;;;12.95;0.60;;;8.10;99.90;;;;;;5076059;28;20031;-76
2021/03/16 09:06:38;;;;;;;10.57;0.28;;;8.00;99.90;;;;;;5057062;28;20021;-80
2021/03/16 09:09:05;;;;;;;19.75;1.48;;;8.00;99.90;;;;;;5077071;28;20469;-78
2021/03/16 09:11:34;;;;;;;14.15;0.68;;;7.90;99.90;;;;;;5074269;28;20025;-78
2021/03/16 09:14:08;;;;;;;8.18;0.68;;;7.90;99.90;;;;;;5073605;28;20021;-77
2021/03/16 09:16:33;;;;;;;11.35;0.80;;;7.80;99.90;;;;;;5073712;28;20032;-77
2021/03/16 09:18:59;;;;;;;10.60;0.47;;;7.70;99.90;;;;;;5074319;28;20036;-77
2021/03/16 09:21:25;;;;;;;8.52;0.75;;;7.70;99.90;;;;;;5073638;28;20028;-77
2021/03/16 09:23:51;;;;;;;14.70;0.98;;;7.70;99.90;;;;;;5055538;28;20025;-77
2021/03/16 09:26:29;;;;;;;19.95;1.92;;;7.80;99.90;;;;;;5074046;28;20035;-77
2021/03/16 09:28:55;;;;;;;11.32;1.20;;;7.80;99.90;;;;;;5073738;28;20023;-77
2021/03/16 09:31:22;;;;;;;11.05;0.45;;;7.70;99.90;;;;;;5074081;28;20092;-78
2021/03/16 09:33:48;;;;;;;15.75;1.00;;;7.60;99.90;;;;;;5073837;28;20078;-77
2021/03/16 09:36:13;;;;;;;10.25;0.30;;;7.60;99.90;;;;;;5055924;28;20028;-77
2021/03/16 09:38:39;;;;;;;4.43;0.80;;;7.50;99.90;;;;;;5073599;28;20389;-78
2021/03/16 09:41:10;;;;;;;4.63;0.22;;;7.50;99.90;;;;;;5073996;28;20025;-78
2021/03/16 09:43:39;;;;;;;4.70;0.40;;;7.50;99.90;;;;;;5074237;28;20535;-77
2021/03/16 09:46:10;;;;;;;3.20;0.47;;;7.40;99.90;;;;;;5074251;28;20020;-76
2021/03/16 09:48:39;;;;;;;7.38;0.98;;;7.50;99.90;;;;;;5073269;28;20066;-77
2021/03/16 09:51:16;;;;;;;2.55;0.00;;;7.60;99.90;;;;;;5055800;28;20490;-77
2021/03/16 09:53:48;;;;;;;14.63;0.10;;;7.60;99.90;;;;;;5086449;22;20049;-77
2021/03/16 09:56:14;;;;;;;3.28;0.55;;;7.70;99.90;;;;;;5081238;22;20045;-77
2021/03/16 09:58:47;;;;;;;2.33;0.25;;;7.80;99.90;;;;;;5053132;28;20040;-78
2021/03/16 10:01:13;;;;;;;4.78;0.65;;;7.80;99.90;;;;;;5035282;28;20036;-78
2021/03/16 10:03:38;;;;;;;5.60;1.10;;;7.90;99.90;;;;;;5053965;28;20369;-78
2021/03/16 10:06:06;;;;;;;10.18;0.85;;;8.00;99.90;;;;;;5035321;28;20466;-77
2021/03/16 10:08:33;;;;;;;8.25;0.25;;;8.20;99.90;;;;;;5055606;28;20036;-78
2021/03/16 10:10:59;;;;;;;6.18;0.15;;;8.40;99.90;;;;;;5038890;28;20027;-76
2021/03/16 10:13:32;;;;;;;7.07;0.13;;;8.40;99.90;;;;;;5056602;28;20450;-77
2021/03/16 10:16:06;;;;;;;4.38;0.43;;;8.50;99.90;;;;;;5038811;28;20033;-78
2021/03/16 10:18:37;;;;;;;10.13;0.47;;;8.70;99.90;;;;;;5056844;28;20051;-76
2021/03/16 10:21:03;;;;;;;7.20;0.38;;;8.80;99.90;;;;;;5056407;28;20086;-78
2021/03/16 10:23:31;;;;;;;6.97;0.43;;;9.00;99.90;;;;;;5056940;28;20410;-76
2021/03/16 10:26:04;;;;;;;4.88;0.20;;;9.00;99.90;;;;;;5040188;28;20056;-80
2021/03/16 10:28:42;;;;;;;6.00;0.10;;;9.00;99.90;;;;;;5038209;28;20036;-76
2021/03/16 10:31:22;;;;;;;3.90;0.10;;;9.10;99.90;;;;;;5057388;28;20351;-79
2021/03/16 10:33:52;;;;;;;8.25;0.70;;;9.10;99.90;;;;;;5057132;28;20062;-80
2021/03/16 10:36:20;;;;;;;6.05;1.40;;;9.10;99.90;;;;;;5058856;28;20394;-80
2021/03/16 10:38:48;;;;;;;7.10;0.45;;;9.20;99.90;;;;;;5057805;28;20512;-77
2021/03/16 10:41:18;;;;;;;5.93;0.25;;;9.20;99.90;;;;;;5039875;28;20025;-77
2021/03/16 10:43:44;;;;;;;8.57;1.27;;;9.20;99.90;;;;;;5052501;22;20417;-76
2021/03/16 10:46:10;;;;;;;4.13;0.45;;;9.20;99.90;;;;;;5057300;28;20044;-76
2021/03/16 10:48:35;;;;;;;5.78;0.55;;;9.20;99.90;;;;;;5038356;28;20163;-78
2021/03/16 10:51:03;;;;;;;8.52;0.50;;;9.10;99.90;;;;;;5055993;28;20029;-78
2021/03/16 10:53:28;;;;;;;7.43;0.70;;;9.00;99.90;;;;;;5056003;28;20025;-78
2021/03/16 10:55:54;;;;;;;5.28;0.55;;;8.90;99.90;;;;;;5056088;28;20036;-78
2021/03/16 10:58:19;;;;;;;5.53;0.57;;;8.90;99.90;;;;;;5055927;28;20024;-78
2021/03/16 11:00:45;;;;;;;3.65;0.17;;;8.80;99.90;;;;;;5055853;28;20029;-78
2021/03/16 11:03:10;;;;;;;6.78;0.22;;;8.60;99.90;;;;;;5056600;28;20029;-78
2021/03/16 11:05:36;;;;;;;3.13;0.10;;;8.50;99.90;;;;;;5039172;28;20112;-79
2021/03/16 11:08:02;;;;;;;10.15;0.20;;;8.40;99.90;;;;;;5056248;28;20458;-78
2021/03/16 11:10:28;;;;;;;9.23;0.28;;;8.30;99.90;;;;;;5056014;28;20036;-77
2021/03/16 11:12:54;;;;;;;5.07;0.28;;;8.30;99.90;;;;;;5055782;28;20025;-77
2021/03/16 11:15:20;;;;;;;2.63;0.00;;;8.30;99.90;;;;;;5055590;28;20040;-78
2021/03/16 11:17:45;;;;;;;6.10;0.32;;;8.30;99.90;;;;;;5055046;28;20029;-77
2021/03/16 11:20:12;;;;;;;6.95;0.00;;;8.40;99.90;;;;;;5037244;28;20112;-77
2021/03/16 11:22:38;;;;;;;6.55;0.52;;;8.50;99.90;;;;;;5037241;28;20494;-77
2021/03/16 11:25:05;;;;;;;4.07;0.00;;;8.50;99.90;;;;;;5055698;28;20056;-77
2021/03/16 11:27:31;;;;;;;6.43;0.08;;;8.60;99.90;;;;;;5037774;28;20021;-77
2021/03/16 11:29:56;;;;;;;1.67;0.10;;;8.80;99.90;;;;;;5052792;22;20060;-86
2021/03/16 11:32:22;;;;;;;6.82;0.40;;;8.90;99.90;;;;;;5039484;28;20025;-87
2021/03/16 11:34:50;;;;;;;5.47;0.00;;;9.60;99.90;;;;;;5039754;28;20031;-86
2021/03/16 11:37:18;;;;;;;3.30;0.00;;;10.10;99.90;;;;;;5057529;28;20017;-86
2021/03/16 11:39:47;;;;;;;2.60;0.10;;;9.00;99.90;;;;;;5039804;28;20028;-86
2021/03/16 11:42:13;;;;;;;3.47;0.40;;;9.50;99.90;;;;;;5039782;28;20028;-87
2021/03/16 11:44:41;;;;;;;2.85;0.10;;;9.40;99.90;;;;;;5040294;28;20017;-86
2021/03/16 11:47:07;;;;;;;0.30;0.00;;;10.20;99.90;;;;;;5042414;28;20017;-86
2021/03/16 11:49:33;;;;;;;0.15;0.00;;;8.10;99.90;;;;;;5042023;28;20104;-86
2021/03/16 11:52:01;;;;;;;1.40;0.00;;;8.40;99.90;;;;;;5042083;28;20060;-87
2021/03/16 11:54:26;;;;;;;7.15;0.52;;;8.40;99.90;;;;;;5041047;28;20521;-87
2021/03/16 11:56:52;;;;;;;3.28;0.00;;;8.00;99.90;;;;;;5040578;28;20029;-86
2021/03/16 11:59:18;;;;;;;2.47;0.00;;;8.40;99.90;;;;;;5038995;28;20040;-86
2021/03/16 12:01:43;;;;;;;1.75;0.00;;;8.30;99.90;;;;;;5057689;28;20124;-88
2021/03/16 12:04:09;;;;;;;3.28;0.00;;;8.40;99.90;;;;;;5038715;28;20017;-87
2021/03/16 12:06:35;;;;;;;2.85;0.00;;;8.80;99.90;;;;;;5056943;28;20056;-87
2021/03/16 12:09:01;;;;;;;2.17;0.00;;;8.80;99.90;;;;;;5039770;28;20017;-87
2021/03/16 12:11:27;;;;;;;2.33;0.00;;;9.90;99.90;;;;;;5049846;28;20025;-87
2021/03/16 12:13:52;;;;;;;1.95;0.05;;;8.70;99.90;;;;;;5067139;28;20478;-87
2021/03/16 12:16:18;;;;;;;1.83;0.00;;;8.60;99.90;;;;;;5051102;28;20025;-87
2021/03/16 12:18:43;;;;;;;2.75;0.00;;;10.10;99.90;;;;;;5063685;28;20044;-86
2021/03/16 12:21:09;;;;;;;3.80;0.00;;;8.30;99.90;;;;;;5060480;28;20029;-87
2021/03/16 12:23:35;;;;;;;0.65;0.00;;;11.60;99.90;;;;;;5043809;28;20022;-86
2021/03/16 12:26:00;;;;;;;2.42;0.10;;;8.10;99.90;;;;;;5045700;28;20088;-86
2021/03/16 12:28:26;;;;;;;0.47;0.00;;;8.10;99.90;;;;;;5043006;28;20020;-85
2021/03/16 12:30:52;;;;;;;3.03;0.40;;;8.00;99.90;;;;;;5047703;28;20044;-86
2021/03/16 12:33:17;;;;;;;0.70;0.00;;;8.90;99.90;;;;;;5056760;28;20029;-86
2021/03/16 12:35:46;;;;;;;0.75;0.00;;;7.80;99.90;;;;;;5040521;28;20021;-87
2021/03/16 12:38:12;;;;;;;4.95;0.45;;;7.70;99.90;;;;;;5038823;28;20108;-87
2021/03/16 12:40:38;;;;;;;4.05;0.47;;;7.70;99.90;;;;;;5058460;28;20052;-86
2021/03/16 12:43:04;;;;;;;2.85;0.00;;;7.70;99.90;;;;;;5055842;28;20092;-86
2021/03/16 12:45:30;;;;;;;2.55;0.30;;;7.80;99.90;;;;;;5045295;28;20116;-86
2021/03/16 12:47:56;;;;;;;1.75;0.00;;;9.90;99.90;;;;;;5042908;28;20080;-86
2021/03/16 12:50:23;;;;;;;1.92;0.45;;;7.80;99.90;;;;;;5059353;28;20441;-85
2021/03/16 12:52:48;;;;;;;2.00;0.00;;;11.50;99.90;;;;;;5054236;28;20033;-85
2021/03/16 12:55:14;;;;;;;3.53;0.00;;;7.70;99.90;;;;;;5060565;28;20029;-85
2021/03/16 12:57:40;;;;;;;1.25;0.30;;;7.60;99.90;;;;;;5051620;28;20025;-87